Snow/Ice From: 16-12-2017 16:00 Until: 17-12-2017 16:00 warning for: Snow/Ice Level: Yellow info button

Although rather usual in this region, locally or potentially dangerous phenomena are expected. (such as local winds, summer thunderstorms, rising streams or high waves) Be aware and pay attention to the latest weather updates, especially if you carry out activities exposed to weather or close to a stream or shoreline. 


Meteo18 Weather Cam more information Meteo18 Weather Cam


Thunder radar more information blitzortung!


warning for Snow/Ice more information rain snow radar


Visit our other weather sites:

Template documentation
and downloads

And another site



Weather Underground History page Text

Daily Summary for May 6, 2017 Units:  Both    English   Metric
« Previous Day
Next Day »
Daily Weekly Monthly Yearly Custom
  High: Low: Average:
Temperature: 60.3 °F /  15.7 °C 51.4 °F /  10.8 °C 55.4 °F /  13 °C
Dew Point: 54.5 °F /  12.5 °C 45.5 °F /  7.5 °C 50 °F /  10 °C
Humidity: 95 % 67 % 83 %
Wind Speed: 19 mph /  30.6 km/h - 5.5 mph /  8.8 km/h
Wind Gust: 26 mph /  41.8 km/h - -
Wind:- - SSW
Pressure: 30 in /  1015.8 hPa 29.7 in /  1007.0 hPa -
Precipitation: 0.17 in /  4.3 mm    
Historical Graphs
 
 
Tabular Data for May 6, 2017
Time Temperature Dew Point Pressure Wind Wind Speed Wind Gust Humidity Rainfall Rate (Hourly)
00:02 55.9 °F /  13.3 °C 45.5 °F /  7.5 °C 29.8 in /  1009.0 hPa NNE 3 mph /  4.8 km/h 7 mph /  11.3 km/h 68 % 0 in /  0.0 mm
00:07 56.1 °F /  13.4 °C 45.7 °F /  7.6 °C 29.8 in /  1009.0 hPa NE 3 mph /  4.8 km/h 7 mph /  11.3 km/h 68 % 0 in /  0.0 mm
00:12 56.3 °F /  13.5 °C 45.5 °F /  7.5 °C 29.8 in /  1009.0 hPa NE 3 mph /  4.8 km/h 7 mph /  11.3 km/h 67 % 0 in /  0.0 mm
00:17 56.5 °F /  13.6 °C 45.7 °F /  7.6 °C 29.8 in /  1009.0 hPa NNE 5 mph /  8.0 km/h 5 mph /  8.0 km/h 67 % 0 in /  0.0 mm
00:22 56.3 °F /  13.5 °C 45.5 °F /  7.5 °C 29.8 in /  1008.7 hPa NE 5 mph /  8.0 km/h 6 mph /  9.7 km/h 67 % 0 in /  0.0 mm
00:27 56.1 °F /  13.4 °C 45.7 °F /  7.6 °C 29.8 in /  1009.0 hPa NE 3 mph /  4.8 km/h 8 mph /  12.9 km/h 68 % 0 in /  0.0 mm
00:32 55.9 °F /  13.3 °C 45.5 °F /  7.5 °C 29.8 in /  1008.7 hPa NE 2 mph /  3.2 km/h 8 mph /  12.9 km/h 68 % 0 in /  0.0 mm
00:42 55.6 °F /  13.1 °C 45.5 °F /  7.5 °C 29.8 in /  1008.7 hPa NE 4 mph /  6.4 km/h 7 mph /  11.3 km/h 69 % 0 in /  0.0 mm
00:47 55.2 °F /  12.9 °C 45.7 °F /  7.6 °C 29.8 in /  1008.7 hPa NE 4 mph /  6.4 km/h 7 mph /  11.3 km/h 70 % 0 in /  0.0 mm
00:52 55.4 °F /  13.0 °C 45.9 °F /  7.7 °C 29.8 in /  1008.7 hPa NE 3 mph /  4.8 km/h 7 mph /  11.3 km/h 70 % 0 in /  0.0 mm
00:57 55.4 °F /  13.0 °C 45.9 °F /  7.7 °C 29.8 in /  1008.7 hPa NE 2 mph /  3.2 km/h 5 mph /  8.0 km/h 70 % 0 in /  0.0 mm
01:02 55.4 °F /  13.0 °C 45.9 °F /  7.7 °C 29.8 in /  1008.7 hPa NNE 3 mph /  4.8 km/h 5 mph /  8.0 km/h 70 % 0 in /  0.0 mm
01:07 55.2 °F /  12.9 °C 45.7 °F /  7.6 °C 29.8 in /  1008.7 hPa NNE 4 mph /  6.4 km/h 6 mph /  9.7 km/h 70 % 0 in /  0.0 mm
01:12 55.6 °F /  13.1 °C 46 °F /  7.8 °C 29.8 in /  1008.7 hPa NE 6 mph /  9.7 km/h 6 mph /  9.7 km/h 70 % 0 in /  0.0 mm
01:17 55.4 °F /  13.0 °C 46.2 °F /  7.9 °C 29.8 in /  1008.7 hPa North 2 mph /  3.2 km/h 6 mph /  9.7 km/h 71 % 0 in /  0.0 mm
01:22 55.2 °F /  12.9 °C 46 °F /  7.8 °C 29.8 in /  1008.4 hPa NNE 3 mph /  4.8 km/h 6 mph /  9.7 km/h 71 % 0 in /  0.0 mm
01:27 55 °F /  12.8 °C 46.2 °F /  7.9 °C 29.8 in /  1008.7 hPa North 2 mph /  3.2 km/h 6 mph /  9.7 km/h 72 % 0 in /  0.0 mm
01:32 54.9 °F /  12.7 °C 46 °F /  7.8 °C 29.8 in /  1008.7 hPa Calm   4 mph /  6.4 km/h 72 % 0 in /  0.0 mm
01:37 55 °F /  12.8 °C 46.2 °F /  7.9 °C 29.8 in /  1008.7 hPa Calm   3 mph /  4.8 km/h 72 % 0 in /  0.0 mm
01:42 55 °F /  12.8 °C 45.9 °F /  7.7 °C 29.8 in /  1008.7 hPa Calm   3 mph /  4.8 km/h 71 % 0 in /  0.0 mm
01:47 55.2 °F /  12.9 °C 46 °F /  7.8 °C 29.8 in /  1008.7 hPa Calm   1 mph /  1.6 km/h 71 % 0 in /  0.0 mm
01:52 55.2 °F /  12.9 °C 46 °F /  7.8 °C 29.8 in /  1008.7 hPa Calm   1 mph /  1.6 km/h 71 % 0 in /  0.0 mm
01:57 55.4 °F /  13.0 °C 46.2 °F /  7.9 °C 29.8 in /  1008.4 hPa North 1 mph /  1.6 km/h 2 mph /  3.2 km/h 71 % 0 in /  0.0 mm
02:02 55.2 °F /  12.9 °C 46 °F /  7.8 °C 29.8 in /  1008.4 hPa Calm   2 mph /  3.2 km/h 71 % 0 in /  0.0 mm
02:07 55.2 °F /  12.9 °C 46 °F /  7.8 °C 29.8 in /  1008.4 hPa NNE 2 mph /  3.2 km/h 2 mph /  3.2 km/h 71 % 0 in /  0.0 mm
02:12 55.2 °F /  12.9 °C 46.4 °F /  8.0 °C 29.8 in /  1008.4 hPa NE 3 mph /  4.8 km/h 3 mph /  4.8 km/h 72 % 0 in /  0.0 mm
02:17 55.6 °F /  13.1 °C 46.4 °F /  8.0 °C 29.8 in /  1008.0 hPa NE 3 mph /  4.8 km/h 4 mph /  6.4 km/h 71 % 0 in /  0.0 mm
02:22 55.4 °F /  13.0 °C 46.6 °F /  8.1 °C 29.8 in /  1008.0 hPa NE 5 mph /  8.0 km/h 5 mph /  8.0 km/h 72 % 0 in /  0.0 mm
02:27 55.2 °F /  12.9 °C 46.4 °F /  8.0 °C 29.8 in /  1008.0 hPa NE 5 mph /  8.0 km/h 6 mph /  9.7 km/h 72 % 0 in /  0.0 mm
02:32 55 °F /  12.8 °C 46.2 °F /  7.9 °C 29.8 in /  1008.0 hPa NE 2 mph /  3.2 km/h 6 mph /  9.7 km/h 72 % 0 in /  0.0 mm
02:37 55 °F /  12.8 °C 46.6 °F /  8.1 °C 29.8 in /  1007.7 hPa NE 4 mph /  6.4 km/h 6 mph /  9.7 km/h 73 % 0 in /  0.0 mm
02:42 55 °F /  12.8 °C 46.6 °F /  8.1 °C 29.8 in /  1007.7 hPa NE 3 mph /  4.8 km/h 6 mph /  9.7 km/h 73 % 0 in /  0.0 mm
02:47 55 °F /  12.8 °C 46.6 °F /  8.1 °C 29.8 in /  1007.7 hPa NE 5 mph /  8.0 km/h 6 mph /  9.7 km/h 73 % 0 in /  0.0 mm
02:52 55 °F /  12.8 °C 46.9 °F /  8.3 °C 29.8 in /  1007.7 hPa Calm   6 mph /  9.7 km/h 74 % 0 in /  0.0 mm
02:57 54.9 °F /  12.7 °C 46.8 °F /  8.2 °C 29.8 in /  1008.0 hPa ENE 1 mph /  1.6 km/h 6 mph /  9.7 km/h 74 % 0 in /  0.0 mm
03:02 54.7 °F /  12.6 °C 46.6 °F /  8.1 °C 29.8 in /  1008.0 hPa East 1 mph /  1.6 km/h 6 mph /  9.7 km/h 74 % 0 in /  0.0 mm
03:07 54.5 °F /  12.5 °C 46.8 °F /  8.2 °C 29.8 in /  1008.0 hPa East 2 mph /  3.2 km/h 3 mph /  4.8 km/h 75 % 0 in /  0.0 mm
03:12 54.3 °F /  12.4 °C 46.6 °F /  8.1 °C 29.8 in /  1007.7 hPa ENE 2 mph /  3.2 km/h 3 mph /  4.8 km/h 75 % 0 in /  0.0 mm
03:17 54.1 °F /  12.3 °C 46.4 °F /  8.0 °C 29.8 in /  1007.7 hPa Calm   3 mph /  4.8 km/h 75 % 0 in /  0.0 mm
03:22 54.1 °F /  12.3 °C 46.8 °F /  8.2 °C 29.8 in /  1007.7 hPa Calm   3 mph /  4.8 km/h 76 % 0 in /  0.0 mm
03:27 54.1 °F /  12.3 °C 46.8 °F /  8.2 °C 29.8 in /  1007.7 hPa Calm   2 mph /  3.2 km/h 76 % 0 in /  0.0 mm
03:32 54.1 °F /  12.3 °C 46.4 °F /  8.0 °C 29.8 in /  1007.7 hPa Calm   1 mph /  1.6 km/h 75 % 0 in /  0.0 mm
03:37 54.3 °F /  12.4 °C 46.6 °F /  8.1 °C 29.8 in /  1007.7 hPa Calm   1 mph /  1.6 km/h 75 % 0 in /  0.0 mm
03:42 54.3 °F /  12.4 °C 46.6 °F /  8.1 °C 29.7 in /  1007.3 hPa Calm   1 mph /  1.6 km/h 75 % 0 in /  0.0 mm
03:47 54.1 °F /  12.3 °C 47.5 °F /  8.6 °C 29.8 in /  1007.7 hPa Calm   1 mph /  1.6 km/h 78 % 0 in /  0.0 mm
03:52 53.8 °F /  12.1 °C 47.8 °F /  8.8 °C 29.8 in /  1007.7 hPa Calm   1 mph /  1.6 km/h 80 % 0 in /  0.0 mm
03:57 53.6 °F /  12.0 °C 47.7 °F /  8.7 °C 29.7 in /  1007.3 hPa Calm   1 mph /  1.6 km/h 80 % 0 in /  0.0 mm
04:02 53.4 °F /  11.9 °C 47.1 °F /  8.4 °C 29.7 in /  1007.3 hPa WNW 1 mph /  1.6 km/h 1 mph /  1.6 km/h 79 % 0 in /  0.0 mm
04:07 53.2 °F /  11.8 °C 47.3 °F /  8.5 °C 29.7 in /  1007.3 hPa Calm   2 mph /  3.2 km/h 80 % 0 in /  0.0 mm
04:12 53.4 °F /  11.9 °C 47.7 °F /  8.7 °C 29.7 in /  1007.3 hPa Calm   2 mph /  3.2 km/h 81 % 0 in /  0.0 mm
04:17 53.2 °F /  11.8 °C 47.8 °F /  8.8 °C 29.7 in /  1007.3 hPa Calm   2 mph /  3.2 km/h 82 % 0 in /  0.0 mm
04:22 52.9 °F /  11.6 °C 47.8 °F /  8.8 °C 29.7 in /  1007.3 hPa Calm   2 mph /  3.2 km/h 83 % 0 in /  0.0 mm
04:27 53.2 °F /  11.8 °C 47.5 °F /  8.6 °C 29.7 in /  1007.3 hPa Calm   2 mph /  3.2 km/h 81 % 0 in /  0.0 mm
04:32 53.4 °F /  11.9 °C 47.7 °F /  8.7 °C 29.7 in /  1007.3 hPa Calm   1 mph /  1.6 km/h 81 % 0 in /  0.0 mm
04:37 53.4 °F /  11.9 °C 47.7 °F /  8.7 °C 29.7 in /  1007.3 hPa Calm   1 mph /  1.6 km/h 81 % 0 in /  0.0 mm
04:42 53.2 °F /  11.8 °C 47.8 °F /  8.8 °C 29.7 in /  1007.3 hPa Calm   1 mph /  1.6 km/h 82 % 0 in /  0.0 mm
04:47 53.1 °F /  11.7 °C 48 °F /  8.9 °C 29.7 in /  1007.3 hPa Calm   1 mph /  1.6 km/h 83 % 0 in /  0.0 mm
04:52 53.1 °F /  11.7 °C 48 °F /  8.9 °C 29.7 in /  1007.3 hPa Calm   1 mph /  1.6 km/h 83 % 0 in /  0.0 mm
04:57 53.1 °F /  11.7 °C 48 °F /  8.9 °C 29.7 in /  1007.3 hPa Calm   1 mph /  1.6 km/h 83 % 0 in /  0.0 mm
05:02 52.7 °F /  11.5 °C 48 °F /  8.9 °C 29.7 in /  1007.0 hPa SSW 1 mph /  1.6 km/h 1 mph /  1.6 km/h 84 % 0 in /  0.0 mm
05:07 52.5 °F /  11.4 °C 48.2 °F /  9.0 °C 29.7 in /  1007.0 hPa Calm   1 mph /  1.6 km/h 85 % 0 in /  0.0 mm
05:12 52.3 °F /  11.3 °C 48.2 °F /  9.0 °C 29.7 in /  1007.3 hPa Calm   1 mph /  1.6 km/h 86 % 0 in /  0.0 mm
05:17 52.2 °F /  11.2 °C 48 °F /  8.9 °C 29.7 in /  1007.3 hPa Calm   1 mph /  1.6 km/h 86 % 0 in /  0.0 mm
05:22 52.2 °F /  11.2 °C 48 °F /  8.9 °C 29.7 in /  1007.3 hPa Calm   1 mph /  1.6 km/h 86 % 0 in /  0.0 mm
05:32 52.2 °F /  11.2 °C 48 °F /  8.9 °C 29.7 in /  1007.3 hPa Calm   1 mph /  1.6 km/h 86 % 0 in /  0.0 mm
05:37 52.2 °F /  11.2 °C 47.8 °F /  8.8 °C 29.7 in /  1007.3 hPa Calm   1 mph /  1.6 km/h 85 % 0 in /  0.0 mm
05:42 52.2 °F /  11.2 °C 47.8 °F /  8.8 °C 29.7 in /  1007.3 hPa Calm   1 mph /  1.6 km/h 85 % 0 in /  0.0 mm
05:47 52.2 °F /  11.2 °C 47.8 °F /  8.8 °C 29.7 in /  1007.3 hPa Calm   1 mph /  1.6 km/h 85 % 0 in /  0.0 mm
05:52 52.2 °F /  11.2 °C 47.8 °F /  8.8 °C 29.7 in /  1007.3 hPa Calm   1 mph /  1.6 km/h 85 % 0 in /  0.0 mm
05:57 52.2 °F /  11.2 °C 48 °F /  8.9 °C 29.7 in /  1007.3 hPa Calm   1 mph /  1.6 km/h 86 % 0 in /  0.0 mm
06:02 51.6 °F /  10.9 °C 47.5 °F /  8.6 °C 29.8 in /  1007.7 hPa Calm   1 mph /  1.6 km/h 86 % 0 in /  0.0 mm
06:07 51.4 °F /  10.8 °C 48 °F /  8.9 °C 29.8 in /  1007.7 hPa Calm   1 mph /  1.6 km/h 88 % 0 in /  0.0 mm
06:12 51.4 °F /  10.8 °C 48 °F /  8.9 °C 29.7 in /  1007.3 hPa Calm   1 mph /  1.6 km/h 88 % 0 in /  0.0 mm
06:17 51.6 °F /  10.9 °C 48.2 °F /  9.0 °C 29.7 in /  1007.3 hPa Calm   1 mph /  1.6 km/h 88 % 0 in /  0.0 mm
06:27 52.2 °F /  11.2 °C 48.4 °F /  9.1 °C 29.7 in /  1007.3 hPa Calm   1 mph /  1.6 km/h 87 % 0 in /  0.0 mm
06:32 52 °F /  11.1 °C 48.2 °F /  9.0 °C 29.8 in /  1007.7 hPa Calm   1 mph /  1.6 km/h 87 % 0 in /  0.0 mm
06:42 51.8 °F /  11.0 °C 48.4 °F /  9.1 °C 29.8 in /  1008.0 hPa SW 2 mph /  3.2 km/h 2 mph /  3.2 km/h 88 % 0 in /  0.0 mm
06:47 51.8 °F /  11.0 °C 48.7 °F /  9.3 °C 29.8 in /  1008.0 hPa SW 2 mph /  3.2 km/h 3 mph /  4.8 km/h 89 % 0.01 in /  0.3 mm
06:52 51.8 °F /  11.0 °C 48.7 °F /  9.3 °C 29.8 in /  1008.0 hPa Calm   3 mph /  4.8 km/h 89 % 0.02 in /  0.5 mm
06:57 51.8 °F /  11.0 °C 48.7 °F /  9.3 °C 29.8 in /  1008.0 hPa SW 2 mph /  3.2 km/h 3 mph /  4.8 km/h 89 % 0.02 in /  0.5 mm
07:02 52.2 °F /  11.2 °C 49.3 °F /  9.6 °C 29.8 in /  1008.0 hPa WSW 4 mph /  6.4 km/h 4 mph /  6.4 km/h 90 % 0.02 in /  0.5 mm
07:07 52.5 °F /  11.4 °C 49.6 °F /  9.8 °C 29.8 in /  1008.0 hPa SW 3 mph /  4.8 km/h 6 mph /  9.7 km/h 90 % 0.03 in /  0.8 mm
07:12 52.5 °F /  11.4 °C 49.6 °F /  9.8 °C 29.8 in /  1008.0 hPa SSW 3 mph /  4.8 km/h 6 mph /  9.7 km/h 90 % 0.04 in /  1.0 mm
07:17 52.3 °F /  11.3 °C 49.5 °F /  9.7 °C 29.8 in /  1008.0 hPa SW 1 mph /  1.6 km/h 6 mph /  9.7 km/h 90 % 0.06 in /  1.5 mm
07:22 52.2 °F /  11.2 °C 49.6 °F /  9.8 °C 29.8 in /  1008.0 hPa SW 1 mph /  1.6 km/h 6 mph /  9.7 km/h 91 % 0.06 in /  1.5 mm
07:27 52 °F /  11.1 °C 49.6 °F /  9.8 °C 29.8 in /  1008.0 hPa SSW 2 mph /  3.2 km/h 5 mph /  8.0 km/h 92 % 0.06 in /  1.5 mm
07:32 52 °F /  11.1 °C 49.6 °F /  9.8 °C 29.8 in /  1008.0 hPa SW 2 mph /  3.2 km/h 3 mph /  4.8 km/h 92 % 0.06 in /  1.5 mm
07:37 52 °F /  11.1 °C 50 °F /  10.0 °C 29.8 in /  1008.4 hPa SSW 1 mph /  1.6 km/h 3 mph /  4.8 km/h 93 % 0.06 in /  1.5 mm
07:42 52.2 °F /  11.2 °C 50.2 °F /  10.1 °C 29.8 in /  1008.4 hPa SW 3 mph /  4.8 km/h 3 mph /  4.8 km/h 93 % 0.06 in /  1.5 mm
07:47 52.2 °F /  11.2 °C 50.2 °F /  10.1 °C 29.8 in /  1008.4 hPa Calm   3 mph /  4.8 km/h 93 % 0.06 in /  1.5 mm
07:52 52.3 °F /  11.3 °C 50.4 °F /  10.2 °C 29.8 in /  1008.0 hPa SSW 1 mph /  1.6 km/h 3 mph /  4.8 km/h 93 % 0.05 in /  1.3 mm
07:57 52.3 °F /  11.3 °C 50.4 °F /  10.2 °C 29.8 in /  1008.4 hPa SSW 2 mph /  3.2 km/h 3 mph /  4.8 km/h 93 % 0.06 in /  1.5 mm
08:02 52.3 °F /  11.3 °C 50.4 °F /  10.2 °C 29.8 in /  1008.4 hPa SSW 1 mph /  1.6 km/h 3 mph /  4.8 km/h 93 % 0.06 in /  1.5 mm
08:07 52.3 °F /  11.3 °C 50.4 °F /  10.2 °C 29.8 in /  1008.4 hPa SW 1 mph /  1.6 km/h 4 mph /  6.4 km/h 93 % 0.06 in /  1.5 mm
08:17 52.3 °F /  11.3 °C 50.7 °F /  10.4 °C 29.8 in /  1008.4 hPa SSW 2 mph /  3.2 km/h 4 mph /  6.4 km/h 94 % 0.04 in /  1.0 mm
08:22 52.3 °F /  11.3 °C 50.7 °F /  10.4 °C 29.8 in /  1008.4 hPa SW 2 mph /  3.2 km/h 3 mph /  4.8 km/h 94 % 0.04 in /  1.0 mm
08:32 52.3 °F /  11.3 °C 50.7 °F /  10.4 °C 29.8 in /  1008.4 hPa SSW 4 mph /  6.4 km/h 6 mph /  9.7 km/h 94 % 0.04 in /  1.0 mm
08:37 52.3 °F /  11.3 °C 50.7 °F /  10.4 °C 29.8 in /  1008.4 hPa South 2 mph /  3.2 km/h 6 mph /  9.7 km/h 94 % 0.04 in /  1.0 mm
08:42 52.3 °F /  11.3 °C 50.7 °F /  10.4 °C 29.8 in /  1008.4 hPa South 3 mph /  4.8 km/h 6 mph /  9.7 km/h 94 % 0.03 in /  0.8 mm
08:47 52.3 °F /  11.3 °C 50.7 °F /  10.4 °C 29.8 in /  1008.4 hPa SSW 3 mph /  4.8 km/h 5 mph /  8.0 km/h 94 % 0.03 in /  0.8 mm
08:52 52.3 °F /  11.3 °C 50.7 °F /  10.4 °C 29.8 in /  1008.4 hPa South 6 mph /  9.7 km/h 6 mph /  9.7 km/h 94 % 0.03 in /  0.8 mm
08:57 52.3 °F /  11.3 °C 50.4 °F /  10.2 °C 29.8 in /  1008.4 hPa SW 7 mph /  11.3 km/h 10 mph /  16.1 km/h 93 % 0.02 in /  0.5 mm
09:02 52.3 °F /  11.3 °C 50.4 °F /  10.2 °C 29.8 in /  1008.4 hPa SSW 3 mph /  4.8 km/h 10 mph /  16.1 km/h 93 % 0.01 in /  0.3 mm
09:07 52.3 °F /  11.3 °C 50.4 °F /  10.2 °C 29.8 in /  1008.4 hPa SSW 3 mph /  4.8 km/h 10 mph /  16.1 km/h 93 % 0.01 in /  0.3 mm
09:12 52.3 °F /  11.3 °C 50.7 °F /  10.4 °C 29.8 in /  1008.0 hPa SSW 4 mph /  6.4 km/h 9 mph /  14.5 km/h 94 % 0.01 in /  0.3 mm
09:17 52.3 °F /  11.3 °C 50.7 °F /  10.4 °C 29.8 in /  1008.0 hPa SSW 2 mph /  3.2 km/h 8 mph /  12.9 km/h 94 % 0.01 in /  0.3 mm
09:22 52.3 °F /  11.3 °C 50.7 °F /  10.4 °C 29.8 in /  1008.0 hPa SW 4 mph /  6.4 km/h 9 mph /  14.5 km/h 94 % 0.01 in /  0.3 mm
09:27 52.5 °F /  11.4 °C 50.9 °F /  10.5 °C 29.8 in /  1008.0 hPa SSW 3 mph /  4.8 km/h 9 mph /  14.5 km/h 94 % 0.01 in /  0.3 mm
09:32 52.7 °F /  11.5 °C 51.1 °F /  10.6 °C 29.8 in /  1008.0 hPa South 5 mph /  8.0 km/h 9 mph /  14.5 km/h 94 % 0.01 in /  0.3 mm
09:37 52.5 °F /  11.4 °C 50.9 °F /  10.5 °C 29.8 in /  1007.7 hPa SW 7 mph /  11.3 km/h 8 mph /  12.9 km/h 94 % 0.01 in /  0.3 mm
09:42 52.3 °F /  11.3 °C 50.7 °F /  10.4 °C 29.8 in /  1007.7 hPa SSW 4 mph /  6.4 km/h 8 mph /  12.9 km/h 94 % 0.01 in /  0.3 mm
09:47 52.3 °F /  11.3 °C 50.7 °F /  10.4 °C 29.8 in /  1008.0 hPa SSW 3 mph /  4.8 km/h 9 mph /  14.5 km/h 94 % 0.01 in /  0.3 mm
09:52 52.5 °F /  11.4 °C 51.1 °F /  10.6 °C 29.8 in /  1008.0 hPa SW 4 mph /  6.4 km/h 9 mph /  14.5 km/h 95 % 0.01 in /  0.3 mm
09:57 52.5 °F /  11.4 °C 50.9 °F /  10.5 °C 29.8 in /  1008.0 hPa SSW 2 mph /  3.2 km/h 7 mph /  11.3 km/h 94 % 0.01 in /  0.3 mm
10:02 52.5 °F /  11.4 °C 50.9 °F /  10.5 °C 29.8 in /  1008.0 hPa SE 6 mph /  9.7 km/h 7 mph /  11.3 km/h 94 % 0 in /  0.0 mm
10:07 52.5 °F /  11.4 °C 51.1 °F /  10.6 °C 29.8 in /  1008.0 hPa SSW 4 mph /  6.4 km/h 9 mph /  14.5 km/h 95 % 0 in /  0.0 mm
10:17 52.5 °F /  11.4 °C 50.9 °F /  10.5 °C 29.8 in /  1008.0 hPa SSW 7 mph /  11.3 km/h 10 mph /  16.1 km/h 94 % 0 in /  0.0 mm
10:22 52.5 °F /  11.4 °C 50.9 °F /  10.5 °C 29.8 in /  1008.0 hPa SW 4 mph /  6.4 km/h 10 mph /  16.1 km/h 94 % 0 in /  0.0 mm
10:27 52.7 °F /  11.5 °C 51.1 °F /  10.6 °C 29.8 in /  1008.0 hPa South 7 mph /  11.3 km/h 10 mph /  16.1 km/h 94 % 0 in /  0.0 mm
10:32 52.7 °F /  11.5 °C 51.1 °F /  10.6 °C 29.8 in /  1008.0 hPa SSW 5 mph /  8.0 km/h 10 mph /  16.1 km/h 94 % 0 in /  0.0 mm
10:37 52.9 °F /  11.6 °C 51.3 °F /  10.7 °C 29.8 in /  1008.0 hPa SSW 7 mph /  11.3 km/h 10 mph /  16.1 km/h 94 % 0 in /  0.0 mm
10:42 52.9 °F /  11.6 °C 51.3 °F /  10.7 °C 29.8 in /  1008.4 hPa SW 8 mph /  12.9 km/h 10 mph /  16.1 km/h 94 % 0 in /  0.0 mm
10:47 52.9 °F /  11.6 °C 51.3 °F /  10.7 °C 29.8 in /  1008.4 hPa SW 7 mph /  11.3 km/h 10 mph /  16.1 km/h 94 % 0 in /  0.0 mm
10:52 53.1 °F /  11.7 °C 51.6 °F /  10.9 °C 29.8 in /  1008.4 hPa SSW 5 mph /  8.0 km/h 10 mph /  16.1 km/h 95 % 0 in /  0.0 mm
10:57 53.1 °F /  11.7 °C 51.6 °F /  10.9 °C 29.8 in /  1008.4 hPa SSW 5 mph /  8.0 km/h 10 mph /  16.1 km/h 95 % 0 in /  0.0 mm
11:02 53.2 °F /  11.8 °C 51.8 °F /  11.0 °C 29.8 in /  1008.4 hPa South 3 mph /  4.8 km/h 10 mph /  16.1 km/h 95 % 0 in /  0.0 mm
11:07 53.4 °F /  11.9 °C 52 °F /  11.1 °C 29.8 in /  1008.4 hPa SW 6 mph /  9.7 km/h 10 mph /  16.1 km/h 95 % 0 in /  0.0 mm
11:17 54.1 °F /  12.3 °C 52.7 °F /  11.5 °C 29.8 in /  1008.4 hPa SSW 2 mph /  3.2 km/h 8 mph /  12.9 km/h 95 % 0 in /  0.0 mm
11:22 54.3 °F /  12.4 °C 52.9 °F /  11.6 °C 29.8 in /  1008.4 hPa SSE 5 mph /  8.0 km/h 8 mph /  12.9 km/h 95 % 0 in /  0.0 mm
11:27 54.7 °F /  12.6 °C 53.2 °F /  11.8 °C 29.8 in /  1008.4 hPa SSW 5 mph /  8.0 km/h 9 mph /  14.5 km/h 95 % 0 in /  0.0 mm
11:32 54.7 °F /  12.6 °C 53.2 °F /  11.8 °C 29.8 in /  1008.4 hPa WSW 5 mph /  8.0 km/h 9 mph /  14.5 km/h 95 % 0 in /  0.0 mm
11:37 54.9 °F /  12.7 °C 53.2 °F /  11.8 °C 29.8 in /  1008.4 hPa WSW 9 mph /  14.5 km/h 9 mph /  14.5 km/h 94 % 0 in /  0.0 mm
11:42 55 °F /  12.8 °C 53.4 °F /  11.9 °C 29.8 in /  1008.4 hPa West 12 mph /  19.3 km/h 12 mph /  19.3 km/h 94 % 0 in /  0.0 mm
11:47 55.2 °F /  12.9 °C 53.6 °F /  12.0 °C 29.8 in /  1008.7 hPa WSW 6 mph /  9.7 km/h 13 mph /  20.9 km/h 94 % 0.01 in /  0.3 mm
11:52 55.2 °F /  12.9 °C 53.6 °F /  12.0 °C 29.8 in /  1008.7 hPa West 6 mph /  9.7 km/h 13 mph /  20.9 km/h 94 % 0.01 in /  0.3 mm
11:57 55.2 °F /  12.9 °C 53.6 °F /  12.0 °C 29.8 in /  1008.7 hPa WSW 6 mph /  9.7 km/h 13 mph /  20.9 km/h 94 % 0.02 in /  0.5 mm
12:02 55.4 °F /  13.0 °C 53.4 °F /  11.9 °C 29.8 in /  1008.7 hPa West 6 mph /  9.7 km/h 13 mph /  20.9 km/h 93 % 0.02 in /  0.5 mm
12:12 56.1 °F /  13.4 °C 53.8 °F /  12.1 °C 29.8 in /  1008.7 hPa West 9 mph /  14.5 km/h 13 mph /  20.9 km/h 92 % 0.02 in /  0.5 mm
12:17 56.1 °F /  13.4 °C 53.6 °F /  12.0 °C 29.8 in /  1008.7 hPa WSW 6 mph /  9.7 km/h 15 mph /  24.1 km/h 91 % 0.02 in /  0.5 mm
12:22 56.3 °F /  13.5 °C 54 °F /  12.2 °C 29.8 in /  1008.7 hPa SW 2 mph /  3.2 km/h 15 mph /  24.1 km/h 92 % 0.02 in /  0.5 mm
12:32 55.9 °F /  13.3 °C 53.6 °F /  12.0 °C 29.8 in /  1008.7 hPa WSW 4 mph /  6.4 km/h 14 mph /  22.5 km/h 92 % 0.02 in /  0.5 mm
12:42 55.9 °F /  13.3 °C 54 °F /  12.2 °C 29.8 in /  1008.7 hPa WSW 7 mph /  11.3 km/h 15 mph /  24.1 km/h 93 % 0.03 in /  0.8 mm
12:47 56.5 °F /  13.6 °C 54.5 °F /  12.5 °C 29.8 in /  1008.7 hPa SW 4 mph /  6.4 km/h 15 mph /  24.1 km/h 93 % 0.02 in /  0.5 mm
12:52 57 °F /  13.9 °C 54.5 °F /  12.5 °C 29.8 in /  1008.7 hPa WSW 11 mph /  17.7 km/h 13 mph /  20.9 km/h 91 % 0.02 in /  0.5 mm
12:57 57.2 °F /  14.0 °C 54 °F /  12.2 °C 29.8 in /  1009.0 hPa SW 6 mph /  9.7 km/h 17 mph /  27.4 km/h 89 % 0.02 in /  0.5 mm
13:02 57.2 °F /  14.0 °C 54.3 °F /  12.4 °C 29.8 in /  1009.0 hPa SW 9 mph /  14.5 km/h 19 mph /  30.6 km/h 90 % 0.02 in /  0.5 mm
13:07 56.8 °F /  13.8 °C 54 °F /  12.2 °C 29.8 in /  1009.0 hPa West 10 mph /  16.1 km/h 19 mph /  30.6 km/h 90 % 0.02 in /  0.5 mm
13:12 56.7 °F /  13.7 °C 54.1 °F /  12.3 °C 29.8 in /  1009.0 hPa SW 6 mph /  9.7 km/h 19 mph /  30.6 km/h 91 % 0.02 in /  0.5 mm
13:17 56.5 °F /  13.6 °C 54.1 °F /  12.3 °C 29.8 in /  1009.0 hPa SSW 4 mph /  6.4 km/h 15 mph /  24.1 km/h 92 % 0.02 in /  0.5 mm
13:22 56.3 °F /  13.5 °C 54 °F /  12.2 °C 29.8 in /  1009.4 hPa West 3 mph /  4.8 km/h 15 mph /  24.1 km/h 92 % 0.02 in /  0.5 mm
13:27 55.9 °F /  13.3 °C 53.4 °F /  11.9 °C 29.8 in /  1009.0 hPa WSW 16 mph /  25.7 km/h 16 mph /  25.7 km/h 91 % 0.03 in /  0.8 mm
13:32 56.1 °F /  13.4 °C 53.6 °F /  12.0 °C 29.8 in /  1009.4 hPa West 10 mph /  16.1 km/h 23 mph /  37.0 km/h 91 % 0.02 in /  0.5 mm
13:37 56.7 °F /  13.7 °C 53.8 °F /  12.1 °C 29.8 in /  1009.4 hPa WNW 10 mph /  16.1 km/h 23 mph /  37.0 km/h 90 % 0.02 in /  0.5 mm
13:42 56.8 °F /  13.8 °C 53.6 °F /  12.0 °C 29.8 in /  1009.4 hPa WSW 4 mph /  6.4 km/h 23 mph /  37.0 km/h 89 % 0.02 in /  0.5 mm
13:47 57 °F /  13.9 °C 53.8 °F /  12.1 °C 29.8 in /  1009.4 hPa WSW 8 mph /  12.9 km/h 16 mph /  25.7 km/h 89 % 0.02 in /  0.5 mm
13:52 57 °F /  13.9 °C 53.8 °F /  12.1 °C 29.8 in /  1009.4 hPa SW 11 mph /  17.7 km/h 16 mph /  25.7 km/h 89 % 0.02 in /  0.5 mm
13:57 56.8 °F /  13.8 °C 53.6 °F /  12.0 °C 29.8 in /  1009.4 hPa West 7 mph /  11.3 km/h 16 mph /  25.7 km/h 89 % 0.02 in /  0.5 mm
14:02 57 °F /  13.9 °C 53.2 °F /  11.8 °C 29.8 in /  1009.4 hPa West 11 mph /  17.7 km/h 23 mph /  37.0 km/h 87 % 0.02 in /  0.5 mm
14:07 57 °F /  13.9 °C 52.9 °F /  11.6 °C 29.8 in /  1009.7 hPa WSW 8 mph /  12.9 km/h 24 mph /  38.6 km/h 86 % 0.02 in /  0.5 mm
14:12 57.4 °F /  14.1 °C 52.9 °F /  11.6 °C 29.8 in /  1009.7 hPa WSW 18 mph /  29.0 km/h 24 mph /  38.6 km/h 85 % 0.01 in /  0.3 mm
14:17 57.2 °F /  14.0 °C 52.3 °F /  11.3 °C 29.8 in /  1009.7 hPa WSW 11 mph /  17.7 km/h 24 mph /  38.6 km/h 84 % 0.01 in /  0.3 mm
14:22 57.4 °F /  14.1 °C 52.9 °F /  11.6 °C 29.8 in /  1009.7 hPa WSW 7 mph /  11.3 km/h 23 mph /  37.0 km/h 85 % 0.01 in /  0.3 mm
14:27 57.6 °F /  14.2 °C 53.1 °F /  11.7 °C 29.8 in /  1009.7 hPa West 14 mph /  22.5 km/h 22 mph /  35.4 km/h 85 % 0 in /  0.0 mm
14:32 57.6 °F /  14.2 °C 52.5 °F /  11.4 °C 29.8 in /  1010.0 hPa SW 13 mph /  20.9 km/h 21 mph /  33.8 km/h 83 % 0 in /  0.0 mm
14:37 57.6 °F /  14.2 °C 51.8 °F /  11.0 °C 29.8 in /  1010.0 hPa WNW 10 mph /  16.1 km/h 20 mph /  32.2 km/h 81 % 0 in /  0.0 mm
14:42 57.7 °F /  14.3 °C 52 °F /  11.1 °C 29.8 in /  1010.4 hPa WNW 10 mph /  16.1 km/h 20 mph /  32.2 km/h 81 % 0 in /  0.0 mm
14:47 57.9 °F /  14.4 °C 51.8 °F /  11.0 °C 29.8 in /  1010.4 hPa West 19 mph /  30.6 km/h 20 mph /  32.2 km/h 80 % 0 in /  0.0 mm
14:52 57.9 °F /  14.4 °C 51.8 °F /  11.0 °C 29.8 in /  1010.4 hPa West 9 mph /  14.5 km/h 19 mph /  30.6 km/h 80 % 0 in /  0.0 mm
14:57 58.1 °F /  14.5 °C 51.3 °F /  10.7 °C 29.8 in /  1010.4 hPa WNW 8 mph /  12.9 km/h 23 mph /  37.0 km/h 78 % 0 in /  0.0 mm
15:02 58.5 °F /  14.7 °C 50.9 °F /  10.5 °C 29.8 in /  1010.4 hPa West 19 mph /  30.6 km/h 26 mph /  41.8 km/h 76 % 0 in /  0.0 mm
15:07 58.6 °F /  14.8 °C 51.1 °F /  10.6 °C 29.8 in /  1010.4 hPa WSW 17 mph /  27.4 km/h 26 mph /  41.8 km/h 76 % 0 in /  0.0 mm
15:12 58.6 °F /  14.8 °C 51.1 °F /  10.6 °C 29.8 in /  1010.4 hPa WSW 12 mph /  19.3 km/h 22 mph /  35.4 km/h 76 % 0 in /  0.0 mm
15:17 58.8 °F /  14.9 °C 50.9 °F /  10.5 °C 29.8 in /  1010.7 hPa WNW 6 mph /  9.7 km/h 22 mph /  35.4 km/h 75 % 0 in /  0.0 mm
15:22 58.8 °F /  14.9 °C 50.9 °F /  10.5 °C 29.8 in /  1010.4 hPa West 19 mph /  30.6 km/h 22 mph /  35.4 km/h 75 % 0 in /  0.0 mm
15:32 59.2 °F /  15.1 °C 52.3 °F /  11.3 °C 29.8 in /  1010.7 hPa SSW 8 mph /  12.9 km/h 23 mph /  37.0 km/h 78 % 0 in /  0.0 mm
15:37 59.4 °F /  15.2 °C 52.5 °F /  11.4 °C 29.9 in /  1011.1 hPa WSW 4 mph /  6.4 km/h 20 mph /  32.2 km/h 78 % 0 in /  0.0 mm
15:42 59.5 °F /  15.3 °C 52.3 °F /  11.3 °C 29.9 in /  1011.1 hPa SW 12 mph /  19.3 km/h 16 mph /  25.7 km/h 77 % 0 in /  0.0 mm
15:47 59.5 °F /  15.3 °C 51.3 °F /  10.7 °C 29.9 in /  1011.1 hPa WSW 13 mph /  20.9 km/h 19 mph /  30.6 km/h 74 % 0 in /  0.0 mm
15:52 59.5 °F /  15.3 °C 50.9 °F /  10.5 °C 29.9 in /  1011.1 hPa WNW 16 mph /  25.7 km/h 20 mph /  32.2 km/h 73 % 0 in /  0.0 mm
15:57 59.2 °F /  15.1 °C 51.3 °F /  10.7 °C 29.9 in /  1011.4 hPa WSW 6 mph /  9.7 km/h 22 mph /  35.4 km/h 75 % 0 in /  0.0 mm
16:02 58.8 °F /  14.9 °C 50.5 °F /  10.3 °C 29.9 in /  1011.1 hPa WSW 9 mph /  14.5 km/h 22 mph /  35.4 km/h 74 % 0 in /  0.0 mm
16:07 59 °F /  15.0 °C 51.1 °F /  10.6 °C 29.9 in /  1011.1 hPa West 10 mph /  16.1 km/h 22 mph /  35.4 km/h 75 % 0 in /  0.0 mm
16:12 59.4 °F /  15.2 °C 51.1 °F /  10.6 °C 29.9 in /  1011.1 hPa West 5 mph /  8.0 km/h 22 mph /  35.4 km/h 74 % 0 in /  0.0 mm
16:17 59.5 °F /  15.3 °C 50.9 °F /  10.5 °C 29.9 in /  1011.1 hPa West 12 mph /  19.3 km/h 20 mph /  32.2 km/h 73 % 0 in /  0.0 mm
16:22 59.7 °F /  15.4 °C 51.4 °F /  10.8 °C 29.9 in /  1011.4 hPa SW 6 mph /  9.7 km/h 23 mph /  37.0 km/h 74 % 0 in /  0.0 mm
16:32 60.3 °F /  15.7 °C 50.9 °F /  10.5 °C 29.9 in /  1011.4 hPa WSW 10 mph /  16.1 km/h 23 mph /  37.0 km/h 71 % 0 in /  0.0 mm
16:37 60.3 °F /  15.7 °C 50.9 °F /  10.5 °C 29.9 in /  1011.4 hPa WNW 9 mph /  14.5 km/h 22 mph /  35.4 km/h 71 % 0 in /  0.0 mm
16:42 60.3 °F /  15.7 °C 50.9 °F /  10.5 °C 29.9 in /  1011.4 hPa West 8 mph /  12.9 km/h 20 mph /  32.2 km/h 71 % 0 in /  0.0 mm
16:47 59.7 °F /  15.4 °C 50.4 °F /  10.2 °C 29.9 in /  1011.4 hPa West 11 mph /  17.7 km/h 20 mph /  32.2 km/h 71 % 0 in /  0.0 mm
16:57 59.2 °F /  15.1 °C 51.3 °F /  10.7 °C 29.9 in /  1011.7 hPa WSW 6 mph /  9.7 km/h 20 mph /  32.2 km/h 75 % 0 in /  0.0 mm
17:02 58.8 °F /  14.9 °C 51.3 °F /  10.7 °C 29.9 in /  1011.7 hPa West 6 mph /  9.7 km/h 19 mph /  30.6 km/h 76 % 0 in /  0.0 mm
17:07 58.5 °F /  14.7 °C 51.6 °F /  10.9 °C 29.9 in /  1011.7 hPa West 12 mph /  19.3 km/h 16 mph /  25.7 km/h 78 % 0 in /  0.0 mm
17:12 57.7 °F /  14.3 °C 51.6 °F /  10.9 °C 29.9 in /  1011.7 hPa WSW 12 mph /  19.3 km/h 17 mph /  27.4 km/h 80 % 0 in /  0.0 mm
17:17 57.4 °F /  14.1 °C 51.6 °F /  10.9 °C 29.9 in /  1011.7 hPa West 6 mph /  9.7 km/h 17 mph /  27.4 km/h 81 % 0 in /  0.0 mm
17:22 57.6 °F /  14.2 °C 52.2 °F /  11.2 °C 29.9 in /  1011.7 hPa SW 5 mph /  8.0 km/h 16 mph /  25.7 km/h 82 % 0.01 in /  0.3 mm
17:27 57.6 °F /  14.2 °C 52.2 °F /  11.2 °C 29.9 in /  1011.7 hPa West 8 mph /  12.9 km/h 16 mph /  25.7 km/h 82 % 0.01 in /  0.3 mm
17:32 57.7 °F /  14.3 °C 52 °F /  11.1 °C 29.9 in /  1012.1 hPa WSW 11 mph /  17.7 km/h 17 mph /  27.4 km/h 81 % 0.01 in /  0.3 mm
17:42 57.7 °F /  14.3 °C 51.6 °F /  10.9 °C 29.9 in /  1011.7 hPa West 11 mph /  17.7 km/h 17 mph /  27.4 km/h 80 % 0.01 in /  0.3 mm
17:52 57.7 °F /  14.3 °C 51.3 °F /  10.7 °C 29.9 in /  1012.1 hPa WSW 11 mph /  17.7 km/h 17 mph /  27.4 km/h 79 % 0.01 in /  0.3 mm
17:57 57.7 °F /  14.3 °C 50.9 °F /  10.5 °C 29.9 in /  1012.1 hPa WSW 16 mph /  25.7 km/h 20 mph /  32.2 km/h 78 % 0.01 in /  0.3 mm
18:02 57.6 °F /  14.2 °C 51.1 °F /  10.6 °C 29.9 in /  1012.1 hPa SW 13 mph /  20.9 km/h 21 mph /  33.8 km/h 79 % 0.01 in /  0.3 mm
18:07 57.6 °F /  14.2 °C 51.1 °F /  10.6 °C 29.9 in /  1012.1 hPa SW 6 mph /  9.7 km/h 21 mph /  33.8 km/h 79 % 0.01 in /  0.3 mm
18:17 57.2 °F /  14.0 °C 50.7 °F /  10.4 °C 29.9 in /  1012.1 hPa SW 4 mph /  6.4 km/h 21 mph /  33.8 km/h 79 % 0 in /  0.0 mm
18:22 57 °F /  13.9 °C 50.5 °F /  10.3 °C 29.9 in /  1012.1 hPa SW 5 mph /  8.0 km/h 17 mph /  27.4 km/h 79 % 0.01 in /  0.3 mm
18:32 57 °F /  13.9 °C 50.9 °F /  10.5 °C 29.9 in /  1012.4 hPa WSW 4 mph /  6.4 km/h 15 mph /  24.1 km/h 80 % 0.01 in /  0.3 mm
18:42 57.2 °F /  14.0 °C 50.7 °F /  10.4 °C 29.9 in /  1012.4 hPa WSW 5 mph /  8.0 km/h 15 mph /  24.1 km/h 79 % 0.01 in /  0.3 mm
18:47 57.4 °F /  14.1 °C 50.9 °F /  10.5 °C 29.9 in /  1012.4 hPa SW 10 mph /  16.1 km/h 15 mph /  24.1 km/h 79 % 0.01 in /  0.3 mm
18:52 57.6 °F /  14.2 °C 51.1 °F /  10.6 °C 29.9 in /  1012.4 hPa WSW 7 mph /  11.3 km/h 15 mph /  24.1 km/h 79 % 0.01 in /  0.3 mm
18:57 57.7 °F /  14.3 °C 50.9 °F /  10.5 °C 29.9 in /  1012.4 hPa WSW 7 mph /  11.3 km/h 16 mph /  25.7 km/h 78 % 0.01 in /  0.3 mm
19:02 57.7 °F /  14.3 °C 50.5 °F /  10.3 °C 29.9 in /  1012.4 hPa West 14 mph /  22.5 km/h 16 mph /  25.7 km/h 77 % 0.01 in /  0.3 mm
19:07 57.9 °F /  14.4 °C 50.7 °F /  10.4 °C 29.9 in /  1012.4 hPa WSW 10 mph /  16.1 km/h 18 mph /  29.0 km/h 77 % 0.01 in /  0.3 mm
19:12 57.9 °F /  14.4 °C 50.7 °F /  10.4 °C 29.9 in /  1012.4 hPa WSW 7 mph /  11.3 km/h 18 mph /  29.0 km/h 77 % 0.01 in /  0.3 mm
19:17 57.9 °F /  14.4 °C 50.7 °F /  10.4 °C 29.9 in /  1012.8 hPa WSW 8 mph /  12.9 km/h 18 mph /  29.0 km/h 77 % 0.01 in /  0.3 mm
19:22 57.9 °F /  14.4 °C 50.7 °F /  10.4 °C 29.9 in /  1012.4 hPa WNW 5 mph /  8.0 km/h 14 mph /  22.5 km/h 77 % 0 in /  0.0 mm
19:27 57.9 °F /  14.4 °C 51.1 °F /  10.6 °C 29.9 in /  1012.8 hPa WSW 5 mph /  8.0 km/h 12 mph /  19.3 km/h 78 % 0 in /  0.0 mm
19:32 57.9 °F /  14.4 °C 51.1 °F /  10.6 °C 29.9 in /  1012.8 hPa WSW 7 mph /  11.3 km/h 12 mph /  19.3 km/h 78 % 0 in /  0.0 mm
19:37 57.9 °F /  14.4 °C 51.4 °F /  10.8 °C 29.9 in /  1012.8 hPa WSW 6 mph /  9.7 km/h 12 mph /  19.3 km/h 79 % 0 in /  0.0 mm
19:42 57.7 °F /  14.3 °C 51.3 °F /  10.7 °C 29.9 in /  1012.8 hPa SW 4 mph /  6.4 km/h 12 mph /  19.3 km/h 79 % 0 in /  0.0 mm
19:47 57.7 °F /  14.3 °C 51.3 °F /  10.7 °C 29.9 in /  1012.8 hPa West 5 mph /  8.0 km/h 12 mph /  19.3 km/h 79 % 0 in /  0.0 mm
19:52 57.9 °F /  14.4 °C 51.1 °F /  10.6 °C 29.9 in /  1012.8 hPa WSW 4 mph /  6.4 km/h 10 mph /  16.1 km/h 78 % 0 in /  0.0 mm
19:57 57.9 °F /  14.4 °C 51.1 °F /  10.6 °C 29.9 in /  1012.8 hPa WSW 6 mph /  9.7 km/h 10 mph /  16.1 km/h 78 % 0 in /  0.0 mm
20:02 57.9 °F /  14.4 °C 51.1 °F /  10.6 °C 29.9 in /  1012.8 hPa SW 3 mph /  4.8 km/h 11 mph /  17.7 km/h 78 % 0 in /  0.0 mm
20:07 58.1 °F /  14.5 °C 50.9 °F /  10.5 °C 29.9 in /  1013.1 hPa WSW 4 mph /  6.4 km/h 12 mph /  19.3 km/h 77 % 0 in /  0.0 mm
20:12 57.9 °F /  14.4 °C 50.4 °F /  10.2 °C 29.9 in /  1013.1 hPa WSW 4 mph /  6.4 km/h 13 mph /  20.9 km/h 76 % 0 in /  0.0 mm
20:17 58.1 °F /  14.5 °C 50.5 °F /  10.3 °C 29.9 in /  1013.1 hPa WSW 11 mph /  17.7 km/h 13 mph /  20.9 km/h 76 % 0 in /  0.0 mm
20:22 57.9 °F /  14.4 °C 50.4 °F /  10.2 °C 29.9 in /  1013.1 hPa WSW 6 mph /  9.7 km/h 13 mph /  20.9 km/h 76 % 0 in /  0.0 mm
20:27 57.9 °F /  14.4 °C 50 °F /  10.0 °C 29.9 in /  1013.1 hPa West 11 mph /  17.7 km/h 14 mph /  22.5 km/h 75 % 0 in /  0.0 mm
20:32 57.9 °F /  14.4 °C 50 °F /  10.0 °C 29.9 in /  1013.1 hPa West 6 mph /  9.7 km/h 14 mph /  22.5 km/h 75 % 0 in /  0.0 mm
20:37 57.9 °F /  14.4 °C 50.4 °F /  10.2 °C 29.9 in /  1013.4 hPa SW 6 mph /  9.7 km/h 14 mph /  22.5 km/h 76 % 0 in /  0.0 mm
20:42 57.9 °F /  14.4 °C 50.4 °F /  10.2 °C 29.9 in /  1013.4 hPa SW 8 mph /  12.9 km/h 14 mph /  22.5 km/h 76 % 0 in /  0.0 mm
20:47 57.7 °F /  14.3 °C 50.2 °F /  10.1 °C 29.9 in /  1013.4 hPa WSW 6 mph /  9.7 km/h 12 mph /  19.3 km/h 76 % 0 in /  0.0 mm
20:52 57.7 °F /  14.3 °C 50.2 °F /  10.1 °C 29.9 in /  1013.8 hPa WSW 5 mph /  8.0 km/h 13 mph /  20.9 km/h 76 % 0 in /  0.0 mm
20:57 57.7 °F /  14.3 °C 50.5 °F /  10.3 °C 29.9 in /  1013.8 hPa SSW 5 mph /  8.0 km/h 13 mph /  20.9 km/h 77 % 0 in /  0.0 mm
21:02 57.6 °F /  14.2 °C 50.4 °F /  10.2 °C 29.9 in /  1013.8 hPa SW 7 mph /  11.3 km/h 12 mph /  19.3 km/h 77 % 0 in /  0.0 mm
21:07 57.6 °F /  14.2 °C 50.7 °F /  10.4 °C 29.9 in /  1013.8 hPa West 7 mph /  11.3 km/h 12 mph /  19.3 km/h 78 % 0 in /  0.0 mm
21:12 57.6 °F /  14.2 °C 50.7 °F /  10.4 °C 29.9 in /  1013.8 hPa SW 10 mph /  16.1 km/h 13 mph /  20.9 km/h 78 % 0 in /  0.0 mm
21:17 57.4 °F /  14.1 °C 50.9 °F /  10.5 °C 29.9 in /  1013.8 hPa SW 13 mph /  20.9 km/h 13 mph /  20.9 km/h 79 % 0 in /  0.0 mm
21:27 57.2 °F /  14.0 °C 51.1 °F /  10.6 °C 29.9 in /  1014.1 hPa SW 8 mph /  12.9 km/h 17 mph /  27.4 km/h 80 % 0 in /  0.0 mm
21:32 57 °F /  13.9 °C 50.9 °F /  10.5 °C 29.9 in /  1014.1 hPa SW 10 mph /  16.1 km/h 23 mph /  37.0 km/h 80 % 0 in /  0.0 mm
21:37 56.8 °F /  13.8 °C 50.7 °F /  10.4 °C 29.9 in /  1014.1 hPa SW 11 mph /  17.7 km/h 23 mph /  37.0 km/h 80 % 0 in /  0.0 mm
21:42 56.7 °F /  13.7 °C 50.5 °F /  10.3 °C 29.9 in /  1014.1 hPa WSW 12 mph /  19.3 km/h 23 mph /  37.0 km/h 80 % 0 in /  0.0 mm
21:47 56.7 °F /  13.7 °C 50.9 °F /  10.5 °C 30 in /  1014.4 hPa West 13 mph /  20.9 km/h 19 mph /  30.6 km/h 81 % 0 in /  0.0 mm
21:52 56.5 °F /  13.6 °C 50.7 °F /  10.4 °C 30 in /  1014.4 hPa SW 10 mph /  16.1 km/h 19 mph /  30.6 km/h 81 % 0 in /  0.0 mm
22:02 56.1 °F /  13.4 °C 50.7 °F /  10.4 °C 30 in /  1014.4 hPa West 6 mph /  9.7 km/h 19 mph /  30.6 km/h 82 % 0 in /  0.0 mm
22:07 56.1 °F /  13.4 °C 51.1 °F /  10.6 °C 30 in /  1014.4 hPa West 6 mph /  9.7 km/h 19 mph /  30.6 km/h 83 % 0 in /  0.0 mm
22:12 55.9 °F /  13.3 °C 50.9 °F /  10.5 °C 30 in /  1014.4 hPa West 8 mph /  12.9 km/h 19 mph /  30.6 km/h 83 % 0 in /  0.0 mm
22:17 55.8 °F /  13.2 °C 50.7 °F /  10.4 °C 30 in /  1014.4 hPa WSW 6 mph /  9.7 km/h 17 mph /  27.4 km/h 83 % 0 in /  0.0 mm
22:22 55.6 °F /  13.1 °C 50.9 °F /  10.5 °C 30 in /  1014.8 hPa SW 5 mph /  8.0 km/h 15 mph /  24.1 km/h 84 % 0 in /  0.0 mm
22:27 55.4 °F /  13.0 °C 50.7 °F /  10.4 °C 30 in /  1014.8 hPa SW 12 mph /  19.3 km/h 16 mph /  25.7 km/h 84 % 0 in /  0.0 mm
22:32 55.2 °F /  12.9 °C 50.7 °F /  10.4 °C 30 in /  1014.8 hPa SW 8 mph /  12.9 km/h 16 mph /  25.7 km/h 85 % 0 in /  0.0 mm
22:37 55 °F /  12.8 °C 50.9 °F /  10.5 °C 30 in /  1015.1 hPa SSW 8 mph /  12.9 km/h 16 mph /  25.7 km/h 86 % 0 in /  0.0 mm
22:42 54.9 °F /  12.7 °C 50.7 °F /  10.4 °C 30 in /  1015.1 hPa West 5 mph /  8.0 km/h 15 mph /  24.1 km/h 86 % 0 in /  0.0 mm
22:47 54.9 °F /  12.7 °C 50.7 °F /  10.4 °C 30 in /  1015.1 hPa WSW 8 mph /  12.9 km/h 16 mph /  25.7 km/h 86 % 0 in /  0.0 mm
22:52 54.9 °F /  12.7 °C 50.7 °F /  10.4 °C 30 in /  1015.1 hPa SW 7 mph /  11.3 km/h 19 mph /  30.6 km/h 86 % 0 in /  0.0 mm
22:57 54.9 °F /  12.7 °C 50.7 °F /  10.4 °C 30 in /  1015.5 hPa WSW 14 mph /  22.5 km/h 23 mph /  37.0 km/h 86 % 0 in /  0.0 mm
23:07 54.7 °F /  12.6 °C 50.9 °F /  10.5 °C 30 in /  1015.5 hPa West 10 mph /  16.1 km/h 23 mph /  37.0 km/h 87 % 0 in /  0.0 mm
23:12 54.5 °F /  12.5 °C 50.7 °F /  10.4 °C 30 in /  1015.5 hPa WSW 13 mph /  20.9 km/h 18 mph /  29.0 km/h 87 % 0 in /  0.0 mm
23:17 54.3 °F /  12.4 °C 50.9 °F /  10.5 °C 30 in /  1015.5 hPa WSW 14 mph /  22.5 km/h 16 mph /  25.7 km/h 88 % 0 in /  0.0 mm
23:22 54.3 °F /  12.4 °C 50.9 °F /  10.5 °C 30 in /  1015.5 hPa WSW 12 mph /  19.3 km/h 18 mph /  29.0 km/h 88 % 0 in /  0.0 mm
23:32 54.3 °F /  12.4 °C 50.9 °F /  10.5 °C 30 in /  1015.5 hPa West 7 mph /  11.3 km/h 19 mph /  30.6 km/h 88 % 0 in /  0.0 mm
23:37 54.1 °F /  12.3 °C 50.7 °F /  10.4 °C 30 in /  1015.5 hPa West 7 mph /  11.3 km/h 18 mph /  29.0 km/h 88 % 0 in /  0.0 mm
23:42 54.1 °F /  12.3 °C 50.9 °F /  10.5 °C 30 in /  1015.5 hPa WSW 11 mph /  17.7 km/h 18 mph /  29.0 km/h 89 % 0 in /  0.0 mm
23:47 54.1 °F /  12.3 °C 50.9 °F /  10.5 °C 30 in /  1015.5 hPa SW 6 mph /  9.7 km/h 18 mph /  29.0 km/h 89 % 0 in /  0.0 mm
23:52 54.1 °F /  12.3 °C 50.9 °F /  10.5 °C 30 in /  1015.8 hPa WNW 9 mph /  14.5 km/h 20 mph /  32.2 km/h 89 % 0 in /  0.0 mm
23:57 54.1 °F /  12.3 °C 50.9 °F /  10.5 °C 30 in /  1015.8 hPa WSW 5 mph /  8.0 km/h 20 mph /  32.2 km/h 89 % 0 in /  0.0 mm
Meteo18
Compliments of Weather Underground - 4 mb

Script developed by  Jim McMurry - jmcmurry@mwt.net Adapted for the template by  Wim van der Kuil - Leuven-Template.eu

You find our weather info also at:

European Weather Network

Weather Underground

Equipment we use:

Weather-station
Davis Vue

Weather-program
Meteohub

Weather-server
Raspberry PI 2 B+

Provider
1 and 1

Davis Vue

Meteohub

Raspberry PI 2 B+

1 and 1